Time;durP1;ratioP1;P1;durP2;ratioP2;P2;SDS_P1;SDS_P2;PMS_P1;PMS_P2;Temp;Humidity;BMP_temperature;BMP_pressure;BME280_temperature;BME280_humidity;BME280_pressure;Samples;Min_cycle;Max_cycle;Signal;HPM_P1;HPM_P2
2021/07/03 00:00:05;;;;;;;;;12.67;10.67;;;;;;;;4983461;28;47249;-76
2021/07/03 00:02:31;;;;;;;;;14.00;10.00;;;;;;;;4971648;28;45595;-77
2021/07/03 00:04:56;;;;;;;;;11.25;11.00;;;;;;;;4977503;28;45436;-77
2021/07/03 00:07:21;;;;;;;;;6.33;6.33;;;;;;;;4974477;28;45484;-76
2021/07/03 00:09:46;;;;;;;;;13.00;9.00;;;;;;;;4968443;28;45531;-76
2021/07/03 00:12:12;;;;;;;;;13.67;10.67;;;;;;;;4972284;28;45639;-76
2021/07/03 00:14:37;;;;;;;;;11.00;9.00;;;;;;;;4968806;28;45744;-76
2021/07/03 00:17:03;;;;;;;;;12.75;11.00;;;;;;;;4973757;28;45812;-76
2021/07/03 00:19:28;;;;;;;;;13.00;11.50;;;;;;;;4974480;28;45660;-76
2021/07/03 00:21:53;;;;;;;;;13.25;10.50;;;;;;;;4971277;28;45597;-76
2021/07/03 00:24:19;;;;;;;;;16.25;11.25;;;;;;;;4978237;28;45593;-76
2021/07/03 00:26:44;;;;;;;;;10.25;9.00;;;;;;;;4971370;28;45493;-76
2021/07/03 00:29:09;;;;;;;;;11.25;10.50;;;;;;;;4973920;28;45248;-76
2021/07/03 00:31:35;;;;;;;;;13.50;12.00;;;;;;;;4978986;28;45813;-76
2021/07/03 00:34:00;;;;;;;;;9.75;8.50;;;;;;;;4982572;28;45697;-76
2021/07/03 00:36:26;;;;;;;;;11.67;11.67;;;;;;;;4974260;28;45658;-76
2021/07/03 00:38:51;;;;;;;;;12.00;10.00;;;;;;;;4972823;28;54600;-77
2021/07/03 00:41:16;;;;;;;;;12.67;10.33;;;;;;;;4964273;28;45576;-76
2021/07/03 00:43:41;;;;;;;;;14.50;13.50;;;;;;;;4971495;28;45765;-77
2021/07/03 00:46:07;;;;;;;;;12.33;12.33;;;;;;;;4968662;28;45946;-75
2021/07/03 00:48:32;;;;;;;;;11.25;10.75;;;;;;;;4962304;28;48443;-76
2021/07/03 00:50:57;;;;;;;;;14.00;11.75;;;;;;;;4973665;28;45582;-76
2021/07/03 00:53:23;;;;;;;;;12.00;12.00;;;;;;;;4971993;28;45371;-77
2021/07/03 00:55:49;;;;;;;;;14.25;12.25;;;;;;;;4979205;28;45585;-76
2021/07/03 00:58:14;;;;;;;;;11.75;10.75;;;;;;;;4972847;28;46683;-77
2021/07/03 01:00:40;;;;;;;;;17.33;12.33;;;;;;;;4968695;28;46615;-76
2021/07/03 01:03:05;;;;;;;;;14.50;13.00;;;;;;;;4984524;28;45600;-76
2021/07/03 01:05:30;;;;;;;;;13.25;12.00;;;;;;;;4966178;28;45741;-76
2021/07/03 01:07:55;;;;;;;;;13.25;11.25;;;;;;;;4978096;28;45456;-77
2021/07/03 01:10:22;;;;;;;;;12.00;12.00;;;;;;;;4966878;28;46193;-76
2021/07/03 01:12:47;;;;;;;;;14.00;12.00;;;;;;;;4967694;28;45571;-77
2021/07/03 01:15:13;;;;;;;;;12.00;11.00;;;;;;;;4971746;28;45480;-77
2021/07/03 01:17:39;;;;;;;;;14.00;11.50;;;;;;;;4972494;28;46087;-76
2021/07/03 01:20:04;;;;;;;;;12.00;10.75;;;;;;;;4968707;28;45522;-77
2021/07/03 01:22:30;;;;;;;;;12.25;10.75;;;;;;;;4969450;28;45838;-76
2021/07/03 01:24:55;;;;;;;;;12.00;12.00;;;;;;;;4968098;28;45543;-76
2021/07/03 01:27:20;;;;;;;;;14.00;12.33;;;;;;;;4974442;28;46208;-76
2021/07/03 01:29:45;;;;;;;;;11.25;11.00;;;;;;;;4969194;28;45515;-76
2021/07/03 01:32:11;;;;;;;;;14.67;12.00;;;;;;;;4969878;28;45751;-76
2021/07/03 01:34:36;;;;;;;;;12.50;11.50;;;;;;;;4971778;28;45635;-76
2021/07/03 01:37:03;;;;;;;;;13.75;13.25;;;;;;;;4966573;28;46290;-76
2021/07/03 01:39:28;;;;;;;;;13.00;13.00;;;;;;;;4971302;28;45505;-76
2021/07/03 01:41:54;;;;;;;;;14.00;11.75;;;;;;;;4970779;28;45581;-76
2021/07/03 01:44:24;;;;;;;;;15.00;13.00;;;;;;;;4967939;28;45432;-76
2021/07/03 01:46:53;;;;;;;;;15.00;12.25;;;;;;;;4976776;28;46083;-76
2021/07/03 01:49:19;;;;;;;;;16.00;13.00;;;;;;;;4973544;28;45696;-76
2021/07/03 01:51:44;;;;;;;;;13.75;12.50;;;;;;;;4964273;28;45659;-76
2021/07/03 01:54:09;;;;;;;;;12.25;12.00;;;;;;;;4967924;28;45651;-76
2021/07/03 01:56:37;;;;;;;;;15.75;13.00;;;;;;;;4969841;28;46119;-76
2021/07/03 01:59:02;;;;;;;;;12.50;12.00;;;;;;;;4973925;28;45584;-76
2021/07/03 02:01:27;;;;;;;;;15.50;12.00;;;;;;;;4977169;28;45530;-75
2021/07/03 02:03:53;;;;;;;;;14.75;13.50;;;;;;;;4970282;28;45555;-76
2021/07/03 02:06:18;;;;;;;;;14.33;14.00;;;;;;;;4975644;28;45389;-76
2021/07/03 02:08:43;;;;;;;;;13.00;11.25;;;;;;;;4966553;28;45777;-76
2021/07/03 02:11:08;;;;;;;;;11.33;10.00;;;;;;;;4969920;28;46232;-76
2021/07/03 02:13:34;;;;;;;;;12.00;12.00;;;;;;;;4964928;28;45421;-75
2021/07/03 02:15:59;;;;;;;;;15.50;13.50;;;;;;;;4973452;28;47472;-75
2021/07/03 02:18:24;;;;;;;;;12.33;12.33;;;;;;;;4965081;28;45744;-76
2021/07/03 02:20:49;;;;;;;;;14.00;13.00;;;;;;;;4967242;28;45948;-76
2021/07/03 02:23:15;;;;;;;;;12.75;11.00;;;;;;;;4967216;28;45603;-76
2021/07/03 02:25:41;;;;;;;;;12.75;12.75;;;;;;;;4975732;28;46803;-77
2021/07/03 02:28:06;;;;;;;;;11.75;10.50;;;;;;;;4967874;28;45557;-75
2021/07/03 02:30:32;;;;;;;;;12.25;12.25;;;;;;;;4971793;28;46305;-75
2021/07/03 02:32:58;;;;;;;;;14.25;14.00;;;;;;;;4971442;28;45539;-76
2021/07/03 02:35:23;;;;;;;;;15.00;14.00;;;;;;;;4969638;28;46250;-75
2021/07/03 02:37:49;;;;;;;;;10.75;10.75;;;;;;;;4975225;28;48187;-76
2021/07/03 02:40:15;;;;;;;;;13.25;11.25;;;;;;;;4966915;28;57030;-75
2021/07/03 02:42:40;;;;;;;;;10.75;10.75;;;;;;;;4974835;28;45651;-76
2021/07/03 02:45:07;;;;;;;;;15.25;12.50;;;;;;;;4975518;28;45918;-76
2021/07/03 02:47:33;;;;;;;;;11.25;11.25;;;;;;;;4971014;28;45957;-75
2021/07/03 02:49:58;;;;;;;;;14.00;12.75;;;;;;;;4963510;28;45479;-76
2021/07/03 02:52:23;;;;;;;;;12.33;11.67;;;;;;;;4970720;28;46069;-75
2021/07/03 02:54:49;;;;;;;;;14.50;13.00;;;;;;;;4970998;28;45536;-76
2021/07/03 02:57:15;;;;;;;;;14.25;12.50;;;;;;;;4982029;28;45896;-76
2021/07/03 02:59:40;;;;;;;;;12.25;11.25;;;;;;;;4972515;28;46401;-76
2021/07/03 03:02:05;;;;;;;;;11.33;10.33;;;;;;;;4982169;28;45305;-76
2021/07/03 03:04:30;;;;;;;;;13.25;13.25;;;;;;;;4969126;28;49695;-75
2021/07/03 03:06:56;;;;;;;;;16.00;12.75;;;;;;;;4972675;28;45562;-76
2021/07/03 03:09:21;;;;;;;;;13.33;12.00;;;;;;;;4977162;28;45523;-76
2021/07/03 03:11:46;;;;;;;;;11.50;11.00;;;;;;;;4968565;28;49167;-75
2021/07/03 03:14:11;;;;;;;;;12.25;11.00;;;;;;;;4975642;28;45506;-76
2021/07/03 03:16:37;;;;;;;;;12.75;12.00;;;;;;;;4974783;28;45442;-75
2021/07/03 03:19:02;;;;;;;;;16.50;12.25;;;;;;;;4963747;28;48131;-75
2021/07/03 03:21:28;;;;;;;;;14.25;11.50;;;;;;;;4971054;28;47139;-76
2021/07/03 03:23:54;;;;;;;;;12.00;12.00;;;;;;;;4969319;28;45655;-76
2021/07/03 03:26:19;;;;;;;;;12.75;11.75;;;;;;;;4976495;28;45567;-75
2021/07/03 03:28:44;;;;;;;;;14.50;11.00;;;;;;;;4973122;28;45831;-75
2021/07/03 03:31:10;;;;;;;;;14.00;12.00;;;;;;;;4963528;28;45958;-75
2021/07/03 03:33:35;;;;;;;;;11.75;11.75;;;;;;;;4971951;28;45650;-76
2021/07/03 03:36:01;;;;;;;;;10.75;10.75;;;;;;;;4971517;28;46171;-75
2021/07/03 03:38:26;;;;;;;;;13.75;12.00;;;;;;;;4970640;28;45495;-76
2021/07/03 03:40:51;;;;;;;;;13.00;11.50;;;;;;;;4984949;28;45547;-76
2021/07/03 03:43:17;;;;;;;;;15.75;12.00;;;;;;;;4969130;28;46114;-76
2021/07/03 03:45:42;;;;;;;;;11.50;11.50;;;;;;;;4968419;28;45619;-76
2021/07/03 03:48:07;;;;;;;;;14.00;12.00;;;;;;;;4975643;28;45503;-76
2021/07/03 03:50:33;;;;;;;;;16.67;12.00;;;;;;;;4963605;28;45579;-76
2021/07/03 03:53:00;;;;;;;;;13.00;12.25;;;;;;;;4979169;28;45999;-75
2021/07/03 03:55:25;;;;;;;;;12.50;12.50;;;;;;;;4974551;28;45611;-75
2021/07/03 03:57:51;;;;;;;;;11.75;11.75;;;;;;;;4971134;28;45666;-77
2021/07/03 04:00:18;;;;;;;;;13.50;10.75;;;;;;;;4974839;28;45538;-77
2021/07/03 04:02:43;;;;;;;;;12.25;11.50;;;;;;;;4966547;28;49399;-77
2021/07/03 04:05:09;;;;;;;;;12.50;10.25;;;;;;;;4968902;28;45599;-77
2021/07/03 04:07:34;;;;;;;;;13.25;11.00;;;;;;;;4971371;28;45670;-77
2021/07/03 04:10:00;;;;;;;;;14.50;11.50;;;;;;;;4972442;28;45697;-78
2021/07/03 04:12:25;;;;;;;;;15.00;12.00;;;;;;;;4974851;28;47259;-77
2021/07/03 04:14:50;;;;;;;;;15.00;12.00;;;;;;;;4960919;28;46400;-78
2021/07/03 04:17:16;;;;;;;;;15.75;13.00;;;;;;;;4973855;28;45546;-77
2021/07/03 04:19:41;;;;;;;;;14.25;12.50;;;;;;;;4983096;28;45715;-77
2021/07/03 04:22:07;;;;;;;;;12.50;12.00;;;;;;;;4974586;28;47093;-77
2021/07/03 04:24:32;;;;;;;;;11.25;10.25;;;;;;;;4975571;28;45539;-77
2021/07/03 04:26:57;;;;;;;;;13.00;11.75;;;;;;;;4963669;28;45953;-78
2021/07/03 04:29:22;;;;;;;;;14.00;13.25;;;;;;;;4969475;28;45556;-77
2021/07/03 04:31:48;;;;;;;;;13.00;12.25;;;;;;;;4974493;28;45939;-77
2021/07/03 04:34:13;;;;;;;;;15.00;13.75;;;;;;;;4966781;28;45958;-77
2021/07/03 04:36:39;;;;;;;;;15.75;13.75;;;;;;;;4968130;28;45910;-78
2021/07/03 04:39:06;;;;;;;;;12.25;12.00;;;;;;;;4968806;28;45437;-78
2021/07/03 04:41:32;;;;;;;;;14.00;10.50;;;;;;;;4967038;28;46276;-77
2021/07/03 04:43:58;;;;;;;;;15.50;13.50;;;;;;;;4972101;28;45962;-77
2021/07/03 04:46:23;;;;;;;;;12.75;11.25;;;;;;;;4964975;28;45470;-77
2021/07/03 04:48:48;;;;;;;;;19.00;13.00;;;;;;;;4970016;28;45593;-77
2021/07/03 04:51:14;;;;;;;;;16.00;13.00;;;;;;;;4972940;28;46750;-78
2021/07/03 04:53:39;;;;;;;;;13.00;11.00;;;;;;;;4967038;28;55776;-77
2021/07/03 04:56:04;;;;;;;;;13.67;13.00;;;;;;;;4974360;28;46472;-77
2021/07/03 04:58:30;;;;;;;;;11.75;11.75;;;;;;;;4983921;28;45591;-77
2021/07/03 05:00:55;;;;;;;;;13.50;11.25;;;;;;;;4962389;28;46211;-79
2021/07/03 05:03:20;;;;;;;;;13.00;12.00;;;;;;;;4981348;28;45690;-79
2021/07/03 05:05:45;;;;;;;;;14.25;11.25;;;;;;;;4970674;28;45662;-79
2021/07/03 05:08:11;;;;;;;;;13.00;11.75;;;;;;;;4969878;28;45641;-79
2021/07/03 05:10:36;;;;;;;;;13.00;13.00;;;;;;;;4973135;28;45520;-78
2021/07/03 05:13:01;;;;;;;;;15.00;13.50;;;;;;;;4975405;28;52111;-78
2021/07/03 05:15:27;;;;;;;;;12.25;11.25;;;;;;;;4976800;28;45514;-79
2021/07/03 05:17:52;;;;;;;;;13.00;11.00;;;;;;;;4971016;28;45511;-78
2021/07/03 05:20:18;;;;;;;;;17.00;14.00;;;;;;;;4969311;28;45547;-78
2021/07/03 05:22:43;;;;;;;;;15.50;11.50;;;;;;;;4973196;28;45425;-78
2021/07/03 05:25:09;;;;;;;;;16.75;12.25;;;;;;;;4974609;28;45888;-78
2021/07/03 05:27:34;;;;;;;;;13.75;11.75;;;;;;;;4979710;28;45665;-78
2021/07/03 05:30:00;;;;;;;;;16.50;14.50;;;;;;;;4988813;28;45531;-78
2021/07/03 05:32:25;;;;;;;;;12.25;10.75;;;;;;;;4970362;28;45646;-79
2021/07/03 05:34:51;;;;;;;;;11.75;10.00;;;;;;;;4972612;28;45535;-78
2021/07/03 05:37:16;;;;;;;;;14.00;11.50;;;;;;;;4973667;28;46006;-78
2021/07/03 05:39:41;;;;;;;;;11.50;11.50;;;;;;;;4978638;28;46170;-78
2021/07/03 05:42:07;;;;;;;;;16.50;13.00;;;;;;;;4977105;28;46334;-80
2021/07/03 05:44:32;;;;;;;;;17.50;11.50;;;;;;;;5710623;22;46109;-79
2021/07/03 05:46:57;;;;;;;;;13.00;12.00;;;;;;;;4999109;28;45649;-79
2021/07/03 05:49:22;;;;;;;;;12.25;11.25;;;;;;;;4985976;28;49359;-78
2021/07/03 05:51:48;;;;;;;;;10.75;10.75;;;;;;;;4989416;28;45597;-78
2021/07/03 05:54:13;;;;;;;;;12.75;11.75;;;;;;;;4991694;28;45542;-79
2021/07/03 05:56:38;;;;;;;;;11.00;11.00;;;;;;;;4992034;28;45641;-79
2021/07/03 05:59:04;;;;;;;;;15.25;14.25;;;;;;;;4993346;28;46540;-77
2021/07/03 06:01:29;;;;;;;;;15.50;11.50;;;;;;;;4991177;28;52383;-77
2021/07/03 06:03:54;;;;;;;;;15.50;14.00;;;;;;;;4999053;28;45643;-77
2021/07/03 06:06:19;;;;;;;;;13.25;13.00;;;;;;;;5018052;28;45151;-77
2021/07/03 06:08:45;;;;;;;;;13.25;12.50;;;;;;;;5012354;28;48653;-77
2021/07/03 06:11:11;;;;;;;;;13.67;12.00;;;;;;;;5002352;28;46043;-78
2021/07/03 06:13:36;;;;;;;;;15.00;13.25;;;;;;;;4997320;28;45368;-77
2021/07/03 06:16:02;;;;;;;;;15.50;12.25;;;;;;;;5006354;28;45722;-77
2021/07/03 06:18:27;;;;;;;;;12.00;12.00;;;;;;;;4998135;28;46627;-77
2021/07/03 06:20:53;;;;;;;;;14.50;14.00;;;;;;;;4989186;28;46570;-77
2021/07/03 06:23:18;;;;;;;;;11.75;10.25;;;;;;;;5005831;28;45593;-78
2021/07/03 06:25:43;;;;;;;;;11.25;11.00;;;;;;;;4996953;28;45570;-78
2021/07/03 06:28:09;;;;;;;;;13.00;13.00;;;;;;;;4990623;28;45668;-78
2021/07/03 06:38:19;;;;;;;;;15.00;12.00;;;;;;;;4865420;26;45933;-76
2021/07/03 06:40:50;;;;;;;;;14.00;12.00;;;;;;;;5051721;27;45582;-77
2021/07/03 06:51:02;;;;;;;;;11.50;11.50;;;;;;;;1353844;26;46229;-78
2021/07/03 06:53:27;;;;;;;;;15.00;11.00;;;;;;;;5034239;28;45820;-77
2021/07/03 06:55:53;;;;;;;;;13.75;13.25;;;;;;;;5041960;28;45540;-77
2021/07/03 06:58:38;;;;;;;;;14.67;14.00;;;;;;;;5043705;28;45731;-78
2021/07/03 07:01:03;;;;;;;;;14.00;13.00;;;;;;;;5016825;28;45725;-78
2021/07/03 07:03:29;;;;;;;;;15.25;14.25;;;;;;;;5041371;28;45899;-77
2021/07/03 07:05:56;;;;;;;;;15.25;12.50;;;;;;;;5038094;28;47223;-78
2021/07/03 07:08:21;;;;;;;;;13.75;13.75;;;;;;;;5049044;28;46442;-78
2021/07/03 07:11:07;;;;;;;;;12.33;12.00;;;;;;;;5066534;22;45980;-78
2021/07/03 07:13:51;;;;;;;;;;;;;;;;;;;;;
2021/07/03 07:16:29;;;;;;;;;17.75;13.25;;;;;;;;5011039;28;70407;-77
2021/07/03 07:36:04;;;;;;;;;13.75;13.50;;;;;;;;5021717;22;49180;-78
2021/07/03 07:38:33;;;;;;;;;16.50;13.00;;;;;;;;5018272;28;45554;-78
2021/07/03 07:40:59;;;;;;;;;16.00;12.50;;;;;;;;5005531;28;47241;-78
2021/07/03 07:43:24;;;;;;;;;14.00;11.00;;;;;;;;5007029;28;44854;-78
2021/07/03 07:45:52;;;;;;;;;15.25;13.75;;;;;;;;5000560;28;45650;-77
2021/07/03 07:48:17;;;;;;;;;13.25;12.75;;;;;;;;5007370;28;45666;-78
2021/07/03 07:50:42;;;;;;;;;11.50;10.50;;;;;;;;5005359;28;46111;-78
2021/07/03 07:53:08;;;;;;;;;16.75;13.25;;;;;;;;5012046;28;45439;-79
2021/07/03 07:55:33;;;;;;;;;15.75;14.75;;;;;;;;5001002;28;45763;-78
2021/07/03 07:58:00;;;;;;;;;14.00;13.75;;;;;;;;5002594;28;45493;-78
2021/07/03 08:00:26;;;;;;;;;11.50;10.50;;;;;;;;4993880;28;48655;-76
2021/07/03 08:02:51;;;;;;;;;10.75;10.75;;;;;;;;5001180;28;46038;-76
2021/07/03 08:05:17;;;;;;;;;13.00;13.00;;;;;;;;4996844;28;45632;-78
2021/07/03 08:15:27;;;;;;;;;10.50;10.50;;;;;;;;1370520;26;48005;-79
2021/07/03 08:18:03;;;;;;;;;13.00;12.00;;;;;;;;5044482;27;45733;-77
2021/07/03 08:20:48;;;;;;;;;12.00;11.75;;;;;;;;5053906;28;47327;-77
2021/07/03 08:23:14;;;;;;;;;12.00;12.00;;;;;;;;5056091;27;45748;-78
2021/07/03 08:25:42;;;;;;;;;12.75;10.00;;;;;;;;5054261;27;45835;-85
2021/07/03 08:28:07;;;;;;;;;15.00;11.25;;;;;;;;5052448;28;45739;-80
2021/07/03 08:30:34;;;;;;;;;12.50;10.50;;;;;;;;5061315;28;46832;-80
2021/07/03 08:32:59;;;;;;;;;12.00;10.25;;;;;;;;5054823;27;45599;-81
2021/07/03 08:35:24;;;;;;;;;9.50;9.50;;;;;;;;5044999;27;45613;-83
2021/07/03 08:37:50;;;;;;;;;11.75;11.25;;;;;;;;5050283;27;45566;-82
2021/07/03 08:40:16;;;;;;;;;11.75;11.00;;;;;;;;5048550;27;46523;-82
2021/07/03 08:42:41;;;;;;;;;11.75;8.25;;;;;;;;5058908;27;45567;-85
2021/07/03 08:45:07;;;;;;;;;10.50;10.50;;;;;;;;5047867;27;46061;-83
2021/07/03 08:47:32;;;;;;;;;13.25;10.75;;;;;;;;5044924;27;45537;-83
2021/07/03 08:50:00;;;;;;;;;9.75;9.50;;;;;;;;5060706;27;46908;-83
2021/07/03 08:52:25;;;;;;;;;8.00;8.00;;;;;;;;5050504;27;45536;-84
2021/07/03 08:55:00;;;;;;;;;9.50;8.75;;;;;;;;5054417;27;45607;-84
2021/07/03 08:57:25;;;;;;;;;11.75;9.25;;;;;;;;5057982;27;45585;-86
2021/07/03 09:02:52;;;;;;;;;11.50;10.50;;;;;;;;4980905;28;45547;-86
2021/07/03 09:05:26;;;;;;;;;13.50;11.00;;;;;;;;4963828;28;45555;-85
2021/07/03 09:07:55;;;;;;;;;11.50;10.25;;;;;;;;4982423;28;45598;-85
2021/07/03 09:10:21;;;;;;;;;12.00;11.00;;;;;;;;4980541;28;46570;-86
2021/07/03 09:12:49;;;;;;;;;13.00;12.25;;;;;;;;4966747;28;45444;-85
2021/07/03 09:15:16;;;;;;;;;10.50;10.25;;;;;;;;4983717;28;45745;-86
2021/07/03 09:17:52;;;;;;;;;12.00;12.00;;;;;;;;4975867;28;45573;-86
2021/07/03 09:20:36;;;;;;;;;10.75;10.00;;;;;;;;4966829;28;47004;-84
2021/07/03 09:23:12;;;;;;;;;13.50;10.00;;;;;;;;4963769;28;46338;-85
2021/07/03 09:25:39;;;;;;;;;11.25;10.75;;;;;;;;4993950;28;45843;-83
2021/07/03 09:28:17;;;;;;;;;13.75;11.00;;;;;;;;4973892;28;45918;-81
2021/07/03 09:30:54;;;;;;;;;10.25;8.50;;;;;;;;4966483;28;46574;-83
2021/07/03 09:42:00;;;;;;;;;12.00;11.25;;;;;;;;5152438;22;45643;-88
2021/07/03 09:44:25;;;;;;;;;13.75;10.25;;;;;;;;5020352;28;45617;-87
2021/07/03 09:46:52;;;;;;;;;12.25;10.75;;;;;;;;5037303;28;45465;-88
2021/07/03 09:49:19;;;;;;;;;12.50;12.50;;;;;;;;5226783;22;45725;-87
2021/07/03 09:51:44;;;;;;;;;12.25;10.00;;;;;;;;5038854;22;48221;-88
2021/07/03 09:54:12;;;;;;;;;12.25;11.00;;;;;;;;5016381;28;45542;-87
2021/07/03 09:56:38;;;;;;;;;12.00;10.00;;;;;;;;5018277;28;45514;-88
2021/07/03 09:59:04;;;;;;;;;11.00;10.00;;;;;;;;4998982;28;45580;-88
2021/07/03 10:01:29;;;;;;;;;12.75;11.25;;;;;;;;5007361;28;47340;-88
2021/07/03 10:03:56;;;;;;;;;11.50;10.25;;;;;;;;5196114;22;46957;-87
2021/07/03 10:06:30;;;;;;;;;13.00;8.25;;;;;;;;5039405;28;51256;-87
2021/07/03 10:08:57;;;;;;;;;11.75;10.75;;;;;;;;5029247;28;45620;-88
2021/07/03 10:11:24;;;;;;;;;11.00;10.00;;;;;;;;5033160;28;45574;-88
2021/07/03 10:13:56;;;;;;;;;9.75;8.25;;;;;;;;5039214;28;45844;-87
2021/07/03 10:16:22;;;;;;;;;11.00;8.50;;;;;;;;5035121;28;45517;-88
2021/07/03 10:18:47;;;;;;;;;8.25;8.25;;;;;;;;5034435;28;45546;-87
2021/07/03 10:21:14;;;;;;;;;13.50;10.00;;;;;;;;5036614;28;46335;-88
2021/07/03 10:23:41;;;;;;;;;11.75;10.50;;;;;;;;5020275;28;45463;-88
2021/07/03 10:26:06;;;;;;;;;12.00;11.00;;;;;;;;5036446;28;45348;-88
2021/07/03 10:28:32;;;;;;;;;12.00;11.50;;;;;;;;5011933;28;45369;-88
2021/07/03 10:31:06;;;;;;;;;12.50;9.50;;;;;;;;5014557;28;46923;-87
2021/07/03 10:33:39;;;;;;;;;10.75;10.75;;;;;;;;5047420;28;45597;-89
2021/07/03 10:36:05;;;;;;;;;11.25;10.75;;;;;;;;5173509;22;45351;-89
2021/07/03 10:44:01;;;;;;;;;13.00;10.75;;;;;;;;5678059;22;45591;-90
2021/07/03 10:49:55;;;;;;;;;13.75;12.00;;;;;;;;4972054;28;45603;-86
2021/07/03 11:03:43;;;;;;;;;13.75;12.00;;;;;;;;5038686;22;45477;-87
2021/07/03 11:06:19;;;;;;;;;8.50;8.50;;;;;;;;5149390;22;45401;-89
2021/07/03 11:08:45;;;;;;;;;7.75;7.75;;;;;;;;5034452;28;45437;-91
2021/07/03 11:11:11;;;;;;;;;8.00;7.00;;;;;;;;5051890;22;45494;-89
2021/07/03 11:13:36;;;;;;;;;10.50;7.75;;;;;;;;5030964;28;45515;-90
2021/07/03 11:16:03;;;;;;;;;7.75;7.75;;;;;;;;5035798;28;45623;-90
2021/07/03 11:18:30;;;;;;;;;12.00;7.00;;;;;;;;5019427;28;45677;-91
2021/07/03 11:20:57;;;;;;;;;9.00;9.00;;;;;;;;5035800;28;45490;-89
2021/07/03 11:23:23;;;;;;;;;11.75;8.00;;;;;;;;5034959;28;46397;-89
2021/07/03 11:25:48;;;;;;;;;11.75;9.50;;;;;;;;5034516;28;45399;-89
2021/07/03 11:28:17;;;;;;;;;10.25;10.25;;;;;;;;5033722;28;45422;-90
2021/07/03 11:30:43;;;;;;;;;13.50;10.00;;;;;;;;5018456;28;45494;-90
2021/07/03 11:33:10;;;;;;;;;11.50;9.00;;;;;;;;5025849;28;48062;-90
2021/07/03 11:35:39;;;;;;;;;12.00;10.25;;;;;;;;5033164;28;45502;-90
2021/07/03 11:38:04;;;;;;;;;11.00;10.50;;;;;;;;5027266;28;45475;-88
2021/07/03 11:40:30;;;;;;;;;8.50;8.50;;;;;;;;5016325;28;45556;-89
2021/07/03 12:18:53;;;;;;;;;4.25;4.00;;;;;;;;5289144;22;47215;-87
2021/07/03 12:32:14;;;;;;;;;5.75;5.75;;;;;;;;5724746;22;46389;-84
2021/07/03 12:40:43;;;;;;;;;3.75;3.75;;;;;;;;4938321;28;45883;-85
2021/07/03 12:48:52;;;;;;;;;4.00;4.00;;;;;;;;5699924;22;45896;-84
2021/07/03 12:51:18;;;;;;;;;5.25;4.00;;;;;;;;5013779;28;45595;-84
2021/07/03 13:02:34;;;;;;;;;6.00;5.00;;;;;;;;5193318;22;45568;-89
2021/07/03 13:05:00;;;;;;;;;5.50;5.00;;;;;;;;5007971;28;45351;-88
2021/07/03 13:07:25;;;;;;;;;4.33;4.33;;;;;;;;5004938;28;45366;-89
2021/07/03 13:09:50;;;;;;;;;5.00;4.00;;;;;;;;5003224;28;46573;-88
2021/07/03 13:12:15;;;;;;;;;5.00;5.00;;;;;;;;5015326;28;45500;-88
2021/07/03 13:14:41;;;;;;;;;8.00;6.67;;;;;;;;4996536;28;45397;-89
2021/07/03 13:22:17;;;;;;;;;4.25;4.25;;;;;;;;5261795;22;45301;-96
2021/07/03 13:24:43;;;;;;;;;5.75;5.75;;;;;;;;5683483;22;45880;-96
2021/07/03 13:40:43;;;;;;;;;5.00;5.00;;;;;;;;5157749;22;45596;-81
2021/07/03 13:43:09;;;;;;;;;5.00;5.00;;;;;;;;5022824;28;45574;-84
2021/07/03 13:45:34;;;;;;;;;6.00;4.00;;;;;;;;5025481;28;53064;-83
2021/07/03 13:47:59;;;;;;;;;8.00;6.00;;;;;;;;5027468;28;47151;-83
2021/07/03 13:50:25;;;;;;;;;7.50;6.25;;;;;;;;5021893;28;45623;-82
2021/07/03 13:52:50;;;;;;;;;8.75;8.75;;;;;;;;5015763;28;45566;-83
2021/07/03 13:55:15;;;;;;;;;5.25;5.00;;;;;;;;5022582;28;45689;-81
2021/07/03 13:57:41;;;;;;;;;6.25;5.25;;;;;;;;5025852;28;45538;-83
2021/07/03 14:00:09;;;;;;;;;6.50;4.75;;;;;;;;5013682;28;47059;-84
2021/07/03 14:02:34;;;;;;;;;5.00;4.00;;;;;;;;5021670;28;45939;-83
2021/07/03 14:05:00;;;;;;;;;8.75;5.00;;;;;;;;5011970;28;45990;-82
2021/07/03 14:07:27;;;;;;;;;5.50;4.00;;;;;;;;5031469;28;45538;-83
2021/07/03 14:09:52;;;;;;;;;5.50;5.00;;;;;;;;5007398;28;47545;-83
2021/07/03 14:12:18;;;;;;;;;6.25;5.25;;;;;;;;5035472;28;45951;-83
2021/07/03 14:25:59;;;;;;;;;5.00;5.00;;;;;;;;5223994;22;45684;-88
2021/07/03 14:30:59;;;;;;;;;4.00;4.00;;;;;;;;5170852;22;45586;-85
2021/07/03 14:33:25;;;;;;;;;5.00;3.25;;;;;;;;4982913;28;45931;-85
2021/07/03 14:35:50;;;;;;;;;4.00;3.00;;;;;;;;4993024;28;60235;-87
2021/07/03 14:38:15;;;;;;;;;3.50;3.50;;;;;;;;4983403;28;45587;-86
2021/07/03 14:46:42;;;;;;;;;3.00;3.00;;;;;;;;5023069;22;45667;-84
2021/07/03 14:49:08;;;;;;;;;4.00;3.75;;;;;;;;5007568;28;45705;-85
2021/07/03 14:59:39;;;;;;;;;6.25;4.25;;;;;;;;5064945;22;45926;-87
2021/07/03 15:02:04;;;;;;;;;5.00;4.00;;;;;;;;5017736;28;47725;-86
2021/07/03 15:04:30;;;;;;;;;5.00;5.00;;;;;;;;5025281;28;45667;-87
2021/07/03 15:06:55;;;;;;;;;5.00;3.75;;;;;;;;5025452;28;45553;-88
2021/07/03 15:09:21;;;;;;;;;3.00;3.00;;;;;;;;5034799;28;45436;-88
2021/07/03 15:11:46;;;;;;;;;3.50;3.50;;;;;;;;5032530;28;45584;-87
2021/07/03 15:14:12;;;;;;;;;4.00;4.00;;;;;;;;5028047;28;45868;-88
2021/07/03 15:16:40;;;;;;;;;5.00;4.50;;;;;;;;5027057;22;45609;-85
2021/07/03 15:22:08;;;;;;;;;6.00;4.75;;;;;;;;5028871;22;45729;-81
2021/07/03 15:38:42;;;;;;;;;3.25;3.25;;;;;;;;5315874;22;50445;-88
2021/07/03 15:41:08;;;;;;;;;3.00;3.00;;;;;;;;5178463;22;45620;-87
2021/07/03 15:43:33;;;;;;;;;3.00;2.50;;;;;;;;5045613;28;46823;-88
2021/07/03 15:45:59;;;;;;;;;3.75;2.75;;;;;;;;5053698;27;46566;-88
2021/07/03 15:48:25;;;;;;;;;3.75;3.75;;;;;;;;5056328;27;45730;-89
2021/07/03 15:50:50;;;;;;;;;3.50;3.50;;;;;;;;5033447;22;45414;-84
2021/07/03 15:53:16;;;;;;;;;4.75;3.50;;;;;;;;5007539;28;45470;-85
2021/07/03 15:55:44;;;;;;;;;5.25;3.00;;;;;;;;4995369;28;45569;-85
2021/07/03 16:14:36;;;;;;;;;2.50;2.50;;;;;;;;1295157;22;48797;-87
2021/07/03 16:17:01;;;;;;;;;2.00;2.00;;;;;;;;5016500;28;47240;-85
2021/07/03 16:19:26;;;;;;;;;3.75;1.75;;;;;;;;5009335;28;45530;-85
2021/07/03 16:21:52;;;;;;;;;1.75;1.75;;;;;;;;5014496;28;45533;-85
2021/07/03 16:24:18;;;;;;;;;3.00;1.50;;;;;;;;5003084;28;45940;-85
2021/07/03 16:26:43;;;;;;;;;2.25;2.00;;;;;;;;4989409;28;45628;-87
2021/07/03 16:29:08;;;;;;;;;2.75;2.00;;;;;;;;5005187;28;45448;-88
2021/07/03 16:31:33;;;;;;;;;5.00;3.00;;;;;;;;5008912;28;48381;-87
2021/07/03 16:33:59;;;;;;;;;4.50;3.50;;;;;;;;5008325;28;46136;-87
2021/07/03 16:39:31;;;;;;;;;4.00;2.00;;;;;;;;4924791;28;45732;-88
2021/07/03 16:42:40;;;;;;;;;3.00;3.00;;;;;;;;4916756;28;45533;-87
2021/07/03 16:54:45;;;;;;;;;5.00;4.00;;;;;;;;4718981;29;46113;-88
2021/07/03 16:57:11;;;;;;;;;6.50;3.25;;;;;;;;4720975;29;45699;-87
2021/07/03 16:59:46;;;;;;;;;5.25;5.00;;;;;;;;4719225;29;45562;-88
2021/07/03 17:02:11;;;;;;;;;4.25;4.00;;;;;;;;4724678;29;45613;-87
2021/07/03 17:04:38;;;;;;;;;4.50;3.00;;;;;;;;4716313;29;45689;-88
2021/07/03 17:07:03;;;;;;;;;4.25;4.00;;;;;;;;4722107;29;47502;-87
2021/07/03 17:09:31;;;;;;;;;4.00;2.00;;;;;;;;4717996;29;45533;-87
2021/07/03 17:11:59;;;;;;;;;3.00;3.00;;;;;;;;4714195;29;46702;-87
2021/07/03 17:14:25;;;;;;;;;4.50;3.00;;;;;;;;4725972;29;45734;-86
2021/07/03 17:16:54;;;;;;;;;2.25;2.25;;;;;;;;4718596;29;46803;-86
2021/07/03 17:19:19;;;;;;;;;4.00;4.00;;;;;;;;4700969;30;46182;-87
2021/07/03 17:21:45;;;;;;;;;3.25;3.00;;;;;;;;4756166;29;45640;-86
2021/07/03 17:24:13;;;;;;;;;2.75;2.75;;;;;;;;4794999;29;45591;-87
2021/07/03 17:26:41;;;;;;;;;4.00;4.00;;;;;;;;4827044;29;45769;-87
2021/07/03 17:29:15;;;;;;;;;4.25;3.50;;;;;;;;4900148;28;45526;-87
2021/07/03 17:31:43;;;;;;;;;6.00;4.75;;;;;;;;4984053;28;45754;-87
2021/07/03 17:34:11;;;;;;;;;4.00;4.00;;;;;;;;5002943;28;45617;-87
2021/07/03 17:36:45;;;;;;;;;4.50;4.50;;;;;;;;5011398;28;47068;-87
2021/07/03 17:39:12;;;;;;;;;5.50;5.00;;;;;;;;5009599;28;45606;-87
2021/07/03 17:41:40;;;;;;;;;3.75;3.75;;;;;;;;5003490;28;45526;-88
2021/07/03 17:50:15;;;;;;;;;5.75;5.75;;;;;;;;5009063;22;46921;-88
2021/07/03 17:55:55;;;;;;;;;4.00;4.00;;;;;;;;5001290;28;45481;-88
2021/07/03 17:58:20;;;;;;;;;3.75;3.75;;;;;;;;4996894;28;47431;-85
2021/07/03 18:00:45;;;;;;;;;6.75;5.25;;;;;;;;4993439;28;46066;-86
2021/07/03 18:03:11;;;;;;;;;3.25;3.25;;;;;;;;4984928;28;45619;-85
2021/07/03 18:05:36;;;;;;;;;6.25;5.00;;;;;;;;4974395;28;45595;-86
2021/07/03 18:08:07;;;;;;;;;5.25;3.00;;;;;;;;4998947;28;45696;-86
2021/07/03 18:10:35;;;;;;;;;4.25;3.00;;;;;;;;4981817;28;54364;-88
2021/07/03 18:13:00;;;;;;;;;4.75;4.00;;;;;;;;4991042;28;45424;-86
2021/07/03 18:15:28;;;;;;;;;3.00;3.00;;;;;;;;4976306;28;45697;-86
2021/07/03 18:17:53;;;;;;;;;6.00;5.00;;;;;;;;4983880;28;47355;-87
2021/07/03 18:20:19;;;;;;;;;3.75;3.75;;;;;;;;4993168;28;45616;-88
2021/07/03 18:23:02;;;;;;;;;5.25;5.00;;;;;;;;4987127;28;45562;-87